Time;durP1;ratioP1;P1;durP2;ratioP2;P2;SDS_P1;SDS_P2;PMS_P1;PMS_P2;Temp;Humidity;BMP_temperature;BMP_pressure;BME280_temperature;BME280_humidity;BME280_pressure;Samples;Min_cycle;Max_cycle;Signal;HPM_P1;HPM_P2
2022/04/08 00:00:27;;;;;;;;;;;;;;;;;;5056003;28;1199;-68
2022/04/08 00:02:53;;;;;;;;;;;;;;;;;;5074172;28;1051;-68
2022/04/08 00:05:19;;;;;;;;;;;;;;;;;;5074997;28;1019;-67
2022/04/08 00:07:46;;;;;;;;;;;;;;;;;;5077441;28;1310;-68
2022/04/08 00:10:13;;;;;;;;;;;;;;;;;;5077134;28;1918;-68
2022/04/08 00:12:39;;;;;;;;;;;;;;;;;;5073586;28;1087;-68
2022/04/08 00:15:06;;;;;;;;;;;;;;;;;;5074158;28;1135;-68
2022/04/08 00:17:32;;;;;;;;;;;;;;;;;;5071422;28;1523;-68
2022/04/08 00:19:58;;;;;;;;;;;;;;;;;;5053242;28;1557;-68
2022/04/08 00:22:25;;;;;;;;;;;;;;;;;;5053446;28;1115;-68
2022/04/08 00:24:52;;;;;;;;;;;;;;;;;;5035454;28;1086;-68
2022/04/08 00:27:18;;;;;;;;;;;;;;;;;;5053343;28;1330;-68
2022/04/08 00:29:44;;;;;;;;;;;;;;;;;;5071346;28;1175;-68
2022/04/08 00:32:11;;;;;;;;;;;;;;;;;;5073156;28;1918;-69
2022/04/08 00:34:37;;;;;;;;;;;;;;;;;;5072995;28;1051;-68
2022/04/08 00:37:03;;;;;;;;;;;;;;;;;;5072380;28;1345;-68
2022/04/08 00:39:30;;;;;;;;;;;;;;;;;;5073168;28;736;-69
2022/04/08 00:41:59;;;;;;;;;;;;;;;;;;5072252;28;857;-68
2022/04/08 00:44:25;;;;;;;;;;;;;;;;;;5073294;28;971;-69
2022/04/08 00:46:52;;;;;;;;;;;;;;;;;;5072125;28;1438;-68
2022/04/08 00:49:18;;;;;;;;;;;;;;;;;;5073145;28;929;-68
2022/04/08 00:51:44;;;;;;;;;;;;;;;;;;5072492;28;1979;-68
2022/04/08 00:54:10;;;;;;;;;;;;;;;;;;5072862;28;758;-68
2022/04/08 00:56:37;;;;;;;;;;;;;;;;;;5072110;28;1317;-68
2022/04/08 00:59:04;;;;;;;;;;;;;;;;;;5072626;28;913;-68
2022/04/08 01:01:31;;;;;;;;;;;;;;;;;;5071319;28;1032;-68
2022/04/08 01:03:57;;;;;;;;;;;;;;;;;;5072383;28;889;-69
2022/04/08 01:06:23;;;;;;;;;;;;;;;;;;5071791;28;1313;-68
2022/04/08 01:08:50;;;;;;;;;;;;;;;;;;5072411;28;1558;-68
2022/04/08 01:11:16;;;;;;;;;;;;;;;;;;5072623;28;1977;-68
2022/04/08 01:13:42;;;;;;;;;;;;;;;;;;5054424;28;1028;-68
2022/04/08 01:16:10;;;;;;;;;;;;;;;;;;5071575;28;1399;-68
2022/04/08 01:18:36;;;;;;;;;;;;;;;;;;5072423;28;1072;-68
2022/04/08 01:21:03;;;;;;;;;;;;;;;;;;5071949;28;1103;-68
2022/04/08 01:23:30;;;;;;;;;;;;;;;;;;5072386;28;1079;-68
2022/04/08 01:25:57;;;;;;;;;;;;;;;;;;5071728;28;1308;-68
2022/04/08 01:28:25;;;;;;;;;;;;;;;;;;5071568;28;1159;-69
2022/04/08 01:30:51;;;;;;;;;;;;;;;;;;5071847;28;1975;-68
2022/04/08 01:33:17;;;;;;;;;;;;;;;;;;5072782;28;1059;-67
2022/04/08 01:35:44;;;;;;;;;;;;;;;;;;5071785;28;1010;-68
2022/04/08 01:38:10;;;;;;;;;;;;;;;;;;5071677;28;1395;-68
2022/04/08 01:40:36;;;;;;;;;;;;;;;;;;5071853;28;901;-67
2022/04/08 01:43:03;;;;;;;;;;;;;;;;;;5071827;28;1067;-67
2022/04/08 01:45:30;;;;;;;;;;;;;;;;;;5071375;28;810;-68
2022/04/08 01:47:56;;;;;;;;;;;;;;;;;;5071458;28;1280;-68
2022/04/08 01:50:22;;;;;;;;;;;;;;;;;;5072407;28;889;-68
2022/04/08 01:52:48;;;;;;;;;;;;;;;;;;5071700;28;1918;-67
2022/04/08 01:55:14;;;;;;;;;;;;;;;;;;5071260;28;885;-67
2022/04/08 01:57:41;;;;;;;;;;;;;;;;;;5071468;28;1400;-67
2022/04/08 02:00:10;;;;;;;;;;;;;;;;;;5071485;28;1067;-67
2022/04/08 02:02:39;;;;;;;;;;;;;;;;;;5071530;28;932;-67
2022/04/08 02:05:06;;;;;;;;;;;;;;;;;;5070723;28;1118;-67
2022/04/08 02:07:32;;;;;;;;;;;;;;;;;;5071357;28;1274;-67
2022/04/08 02:09:58;;;;;;;;;;;;;;;;;;5069779;28;2074;-67
2022/04/08 02:12:25;;;;;;;;;;;;;;;;;;5070112;28;2002;-67
2022/04/08 02:14:51;;;;;;;;;;;;;;;;;;5070640;28;1201;-66
2022/04/08 02:17:19;;;;;;;;;;;;;;;;;;5056469;28;1480;-67
2022/04/08 02:19:45;;;;;;;;;;;;;;;;;;5051204;28;1130;-67
2022/04/08 02:22:11;;;;;;;;;;;;;;;;;;5051823;28;1106;-67
2022/04/08 02:24:37;;;;;;;;;;;;;;;;;;5051065;28;937;-67
2022/04/08 02:27:06;;;;;;;;;;;;;;;;;;5050421;28;1337;-67
2022/04/08 02:29:33;;;;;;;;;;;;;;;;;;5067441;28;1243;-67
2022/04/08 02:31:59;;;;;;;;;;;;;;;;;;5070639;28;1926;-67
2022/04/08 02:34:26;;;;;;;;;;;;;;;;;;5070584;28;1004;-68
2022/04/08 02:36:53;;;;;;;;;;;;;;;;;;5070422;28;1395;-67
2022/04/08 02:39:19;;;;;;;;;;;;;;;;;;5070561;28;919;-67
2022/04/08 02:41:45;;;;;;;;;;;;;;;;;;5070737;28;952;-67
2022/04/08 02:44:11;;;;;;;;;;;;;;;;;;5070399;28;1126;-67
2022/04/08 02:46:37;;;;;;;;;;;;;;;;;;5070350;28;1371;-67
2022/04/08 02:49:04;;;;;;;;;;;;;;;;;;5070666;28;929;-67
2022/04/08 02:51:31;;;;;;;;;;;;;;;;;;5069217;28;1976;-66
2022/04/08 02:53:57;;;;;;;;;;;;;;;;;;5070345;28;936;-67
2022/04/08 02:56:23;;;;;;;;;;;;;;;;;;5069642;28;1361;-67
2022/04/08 02:58:50;;;;;;;;;;;;;;;;;;5070550;28;739;-66
2022/04/08 03:01:16;;;;;;;;;;;;;;;;;;5070506;28;944;-67
2022/04/08 03:03:42;;;;;;;;;;;;;;;;;;5071976;28;1276;-67
2022/04/08 03:06:08;;;;;;;;;;;;;;;;;;5076241;28;1342;-67
2022/04/08 03:08:36;;;;;;;;;;;;;;;;;;5077145;28;1063;-67
2022/04/08 03:11:02;;;;;;;;;;;;;;;;;;5077093;28;1926;-67
2022/04/08 03:13:28;;;;;;;;;;;;;;;;;;5076939;28;961;-67
2022/04/08 03:15:54;;;;;;;;;;;;;;;;;;5075313;28;1269;-67
2022/04/08 03:18:20;;;;;;;;;;;;;;;;;;5077004;28;803;-67
2022/04/08 03:20:47;;;;;;;;;;;;;;;;;;5078602;28;895;-66
2022/04/08 03:23:13;;;;;;;;;;;;;;;;;;5086025;28;870;-67
2022/04/08 03:25:40;;;;;;;;;;;;;;;;;;5088293;28;1015;-67
2022/04/08 03:28:08;;;;;;;;;;;;;;;;;;5076805;28;1338;-68
2022/04/08 03:30:35;;;;;;;;;;;;;;;;;;5076797;28;960;-67
2022/04/08 03:33:01;;;;;;;;;;;;;;;;;;5077167;28;1914;-69
2022/04/08 03:35:27;;;;;;;;;;;;;;;;;;5077076;28;893;-67
2022/04/08 03:37:53;;;;;;;;;;;;;;;;;;5076566;28;1319;-67
2022/04/08 03:40:19;;;;;;;;;;;;;;;;;;5077041;28;878;-68
2022/04/08 03:42:47;;;;;;;;;;;;;;;;;;5091036;22;3667;-67
2022/04/08 03:45:13;;;;;;;;;;;;;;;;;;5053985;28;2018;-67
2022/04/08 03:47:40;;;;;;;;;;;;;;;;;;5075417;28;1283;-67
2022/04/08 03:50:06;;;;;;;;;;;;;;;;;;5076184;28;925;-66
2022/04/08 03:52:33;;;;;;;;;;;;;;;;;;5076002;28;1914;-68
2022/04/08 03:54:59;;;;;;;;;;;;;;;;;;5074261;28;1865;-67
2022/04/08 03:57:25;;;;;;;;;;;;;;;;;;5072049;28;1444;-67
2022/04/08 03:59:53;;;;;;;;;;;;;;;;;;5076826;28;1197;-68
2022/04/08 04:02:20;;;;;;;;;;;;;;;;;;5076219;28;1118;-68
2022/04/08 04:04:46;;;;;;;;;;;;;;;;;;5076593;28;1390;-67
2022/04/08 04:07:12;;;;;;;;;;;;;;;;;;5058306;28;1237;-68
2022/04/08 04:09:38;;;;;;;;;;;;;;;;;;5076887;28;774;-68
2022/04/08 04:12:05;;;;;;;;;;;;;;;;;;5078659;28;1978;-68
2022/04/08 04:14:31;;;;;;;;;;;;;;;;;;5076214;28;1499;-67
2022/04/08 04:16:59;;;;;;;;;;;;;;;;;;5074368;28;1119;-68
2022/04/08 04:19:25;;;;;;;;;;;;;;;;;;5075436;28;1126;-69
2022/04/08 04:21:52;;;;;;;;;;;;;;;;;;5056031;28;1314;-68
2022/04/08 04:24:18;;;;;;;;;;;;;;;;;;5073331;28;1303;-66
2022/04/08 04:26:44;;;;;;;;;;;;;;;;;;5073182;28;1123;-68
2022/04/08 04:29:11;;;;;;;;;;;;;;;;;;5072763;28;1021;-68
2022/04/08 04:31:37;;;;;;;;;;;;;;;;;;5073009;28;1972;-68
2022/04/08 04:34:05;;;;;;;;;;;;;;;;;;5055159;28;1308;-68
2022/04/08 04:36:31;;;;;;;;;;;;;;;;;;5072192;28;1064;-67
2022/04/08 04:38:57;;;;;;;;;;;;;;;;;;5072806;28;961;-68
2022/04/08 04:41:23;;;;;;;;;;;;;;;;;;5072903;28;1071;-68
2022/04/08 04:43:49;;;;;;;;;;;;;;;;;;5072589;28;1364;-68
2022/04/08 04:46:16;;;;;;;;;;;;;;;;;;5072601;28;1080;-67
2022/04/08 04:48:42;;;;;;;;;;;;;;;;;;5073114;28;802;-66
2022/04/08 04:51:11;;;;;;;;;;;;;;;;;;5072456;28;1375;-69
2022/04/08 04:53:38;;;;;;;;;;;;;;;;;;5059558;28;1993;-68
2022/04/08 04:56:04;;;;;;;;;;;;;;;;;;5070723;28;1243;-68
2022/04/08 04:58:31;;;;;;;;;;;;;;;;;;5068772;28;1561;-68
2022/04/08 05:00:57;;;;;;;;;;;;;;;;;;5066833;28;1609;-68
2022/04/08 05:03:23;;;;;;;;;;;;;;;;;;5090574;28;1376;-67
2022/04/08 05:05:51;;;;;;;;;;;;;;;;;;5058341;28;1475;-68
2022/04/08 05:08:18;;;;;;;;;;;;;;;;;;5054364;28;1574;-68
2022/04/08 05:10:45;;;;;;;;;;;;;;;;;;5057671;28;1315;-68
2022/04/08 05:13:11;;;;;;;;;;;;;;;;;;5050140;28;1919;-68
2022/04/08 05:15:42;;;;;;;;;;;;;;;;;;5069317;28;1450;-68
2022/04/08 05:18:08;;;;;;;;;;;;;;;;;;5062729;28;1558;-68
2022/04/08 05:20:35;;;;;;;;;;;;;;;;;;5057652;28;1494;-66
2022/04/08 05:23:01;;;;;;;;;;;;;;;;;;5067798;28;1649;-66
2022/04/08 05:25:28;;;;;;;;;;;;;;;;;;5061200;28;1419;-67
2022/04/08 05:27:54;;;;;;;;;;;;;;;;;;5053045;28;1578;-66
2022/04/08 05:30:22;;;;;;;;;;;;;;;;;;5058197;28;1664;-68
2022/04/08 05:32:48;;;;;;;;;;;;;;;;;;5067242;28;1917;-68
2022/04/08 05:35:15;;;;;;;;;;;;;;;;;;5063283;28;1539;-67
2022/04/08 05:37:42;;;;;;;;;;;;;;;;;;5071631;28;973;-67
2022/04/08 05:40:09;;;;;;;;;;;;;;;;;;5067717;28;1602;-68
2022/04/08 05:42:39;;;;;;;;;;;;;;;;;;5055441;28;1601;-66
2022/04/08 05:45:06;;;;;;;;;;;;;;;;;;5059990;28;1236;-67
2022/04/08 05:47:34;;;;;;;;;;;;;;;;;;5062604;28;1279;-66
2022/04/08 05:50:00;;;;;;;;;;;;;;;;;;5057093;28;1086;-68
2022/04/08 05:52:27;;;;;;;;;;;;;;;;;;5063677;28;1918;-68
2022/04/08 05:54:53;;;;;;;;;;;;;;;;;;5067107;28;1632;-68
2022/04/08 05:57:19;;;;;;;;;;;;;;;;;;5056501;28;1260;-66
2022/04/08 05:59:47;;;;;;;;;;;;;;;;;;5051420;28;1443;-68
2022/04/08 06:02:13;;;;;;;;;;;;;;;;;;5055943;28;1168;-67
2022/04/08 06:04:39;;;;;;;;;;;;;;;;;;5070597;28;1395;-66
2022/04/08 06:07:05;;;;;;;;;;;;;;;;;;5069776;28;1137;-68
2022/04/08 06:09:32;;;;;;;;;;;;;;;;;;5052477;28;1464;-68
2022/04/08 06:11:59;;;;;;;;;;;;;;;;;;5064527;28;1578;-68
2022/04/08 06:14:26;;;;;;;;;;;;;;;;;;5067330;28;1491;-67
2022/04/08 06:16:53;;;;;;;;;;;;;;;;;;5069849;28;1203;-68
2022/04/08 06:19:19;;;;;;;;;;;;;;;;;;5050634;28;1319;-68
2022/04/08 06:21:46;;;;;;;;;;;;;;;;;;5066044;28;1387;-68
2022/04/08 06:24:12;;;;;;;;;;;;;;;;;;5047711;28;1664;-67
2022/04/08 06:26:39;;;;;;;;;;;;;;;;;;5052718;28;1586;-68
2022/04/08 06:29:06;;;;;;;;;;;;;;;;;;5056784;28;1605;-69
2022/04/08 06:31:32;;;;;;;;;;;;;;;;;;5061687;28;1526;-68
2022/04/08 06:34:00;;;;;;;;;;;;;;;;;;5066170;28;1941;-68
2022/04/08 06:36:26;;;;;;;;;;;;;;;;;;5070241;28;817;-69
2022/04/08 06:38:52;;;;;;;;;;;;;;;;;;5056433;28;1765;-68
2022/04/08 06:41:18;;;;;;;;;;;;;;;;;;5066303;28;1728;-67
2022/04/08 06:43:44;;;;;;;;;;;;;;;;;;5060205;28;1717;-68
2022/04/08 06:46:11;;;;;;;;;;;;;;;;;;5065981;28;1597;-67
2022/04/08 06:48:37;;;;;;;;;;;;;;;;;;5052547;28;1071;-67
2022/04/08 06:51:05;;;;;;;;;;;;;;;;;;5070386;28;1582;-68
2022/04/08 06:53:32;;;;;;;;;;;;;;;;;;5055558;28;1987;-68
2022/04/08 06:55:58;;;;;;;;;;;;;;;;;;5070479;28;949;-68
2022/04/08 06:58:26;;;;;;;;;;;;;;;;;;5062808;28;1123;-68
2022/04/08 07:00:52;;;;;;;;;;;;;;;;;;5050158;28;771;-68
2022/04/08 07:03:18;;;;;;;;;;;;;;;;;;5050144;28;1562;-67
2022/04/08 07:05:44;;;;;;;;;;;;;;;;;;5065265;28;1380;-67
2022/04/08 07:08:12;;;;;;;;;;;;;;;;;;5065215;28;1500;-67
2022/04/08 07:10:38;;;;;;;;;;;;;;;;;;5061494;28;1462;-65
2022/04/08 07:13:05;;;;;;;;;;;;;;;;;;5064327;28;1973;-66
2022/04/08 07:15:31;;;;;;;;;;;;;;;;;;5067085;28;1599;-67
2022/04/08 07:17:57;;;;;;;;;;;;;;;;;;5067042;28;1566;-68
2022/04/08 07:20:24;;;;;;;;;;;;;;;;;;5048603;28;1621;-68
2022/04/08 07:22:51;;;;;;;;;;;;;;;;;;5061219;28;1637;-68
2022/04/08 07:25:19;;;;;;;;;;;;;;;;;;5069244;28;1145;-67
2022/04/08 07:27:45;;;;;;;;;;;;;;;;;;5066116;28;1637;-68
2022/04/08 07:30:12;;;;;;;;;;;;;;;;;;5057208;28;1570;-68
2022/04/08 07:32:38;;;;;;;;;;;;;;;;;;5051026;28;1981;-67
2022/04/08 07:35:05;;;;;;;;;;;;;;;;;;5056794;28;1636;-68
2022/04/08 07:37:32;;;;;;;;;;;;;;;;;;5053470;28;1332;-67
2022/04/08 07:39:58;;;;;;;;;;;;;;;;;;5066818;28;1419;-68
2022/04/08 07:42:26;;;;;;;;;;;;;;;;;;5067929;28;1641;-67
2022/04/08 07:44:52;;;;;;;;;;;;;;;;;;5066700;28;1510;-67
2022/04/08 07:47:20;;;;;;;;;;;;;;;;;;5067720;28;1581;-68
2022/04/08 07:49:46;;;;;;;;;;;;;;;;;;5060672;28;1570;-68
2022/04/08 07:52:12;;;;;;;;;;;;;;;;;;5065718;28;1407;-67
2022/04/08 07:54:38;;;;;;;;;;;;;;;;;;5054436;28;1922;-67
2022/04/08 07:57:04;;;;;;;;;;;;;;;;;;5052992;28;1059;-69
2022/04/08 07:59:32;;;;;;;;;;;;;;;;;;5063814;28;1570;-68
2022/04/08 08:01:58;;;;;;;;;;;;;;;;;;5053602;28;2296;-68
2022/04/08 08:04:25;;;;;;;;;;;;;;;;;;5057691;28;1700;-68
2022/04/08 08:06:51;;;;;;;;;;;;;;;;;;5068658;28;1664;-68
2022/04/08 08:09:17;;;;;;;;;;;;;;;;;;5065324;28;1574;-65
2022/04/08 08:11:43;;;;;;;;;;;;;;;;;;5055948;28;1652;-68
2022/04/08 08:14:09;;;;;;;;;;;;;;;;;;5066458;28;1980;-65
2022/04/08 08:16:37;;;;;;;;;;;;;;;;;;5062294;28;1678;-67
2022/04/08 08:19:03;;;;;;;;;;;;;;;;;;5066154;28;1581;-67
2022/04/08 08:21:29;;;;;;;;;;;;;;;;;;5072827;28;1656;-67
2022/04/08 08:23:55;;;;;;;;;;;;;;;;;;5071368;28;1485;-68
2022/04/08 08:26:21;;;;;;;;;;;;;;;;;;5073164;28;1418;-67
2022/04/08 08:28:47;;;;;;;;;;;;;;;;;;5073480;28;1371;-67
2022/04/08 08:31:16;;;;;;;;;;;;;;;;;;5055157;28;1571;-66
2022/04/08 08:33:44;;;;;;;;;;;;;;;;;;5059515;28;1922;-67
2022/04/08 08:36:10;;;;;;;;;;;;;;;;;;5058387;28;1712;-65
2022/04/08 08:38:36;;;;;;;;;;;;;;;;;;5073640;28;906;-67
2022/04/08 08:41:03;;;;;;;;;;;;;;;;;;5073425;28;1068;-68
2022/04/08 08:43:29;;;;;;;;;;;;;;;;;;5072769;28;1492;-67
2022/04/08 08:45:57;;;;;;;;;;;;;;;;;;5055056;28;1132;-68
2022/04/08 08:48:23;;;;;;;;;;;;;;;;;;5073130;28;846;-68
2022/04/08 08:50:52;;;;;;;;;;;;;;;;;;5072946;28;968;-67
2022/04/08 08:53:19;;;;;;;;;;;;;;;;;;5072178;28;1942;-67
2022/04/08 08:55:45;;;;;;;;;;;;;;;;;;5072759;28;1107;-67
2022/04/08 08:58:12;;;;;;;;;;;;;;;;;;5072689;28;1122;-68
2022/04/08 09:00:38;;;;;;;;;;;;;;;;;;5072812;28;945;-67
2022/04/08 09:03:04;;;;;;;;;;;;;;;;;;5071830;28;1387;-67
2022/04/08 09:05:30;;;;;;;;;;;;;;;;;;5071815;28;1079;-67
2022/04/08 09:07:58;;;;;;;;;;;;;;;;;;5071999;28;1013;-68
2022/04/08 09:10:25;;;;;;;;;;;;;;;;;;5071786;28;1107;-68
2022/04/08 09:12:53;;;;;;;;;;;;;;;;;;5071518;28;1485;-67
2022/04/08 09:15:19;;;;;;;;;;;;;;;;;;5071713;28;1918;-67
2022/04/08 09:17:45;;;;;;;;;;;;;;;;;;5071814;28;1075;-68
2022/04/08 09:20:12;;;;;;;;;;;;;;;;;;5072258;28;953;-68
2022/04/08 09:22:38;;;;;;;;;;;;;;;;;;5071434;28;1342;-66
2022/04/08 09:25:10;;;;;;;;;;;;;;;;;;5053617;28;1111;-67
2022/04/08 09:27:37;;;;;;;;;;;;;;;;;;5071412;28;1146;-68
2022/04/08 09:30:03;;;;;;;;;;;;;;;;;;5053507;28;953;-68
2022/04/08 09:32:29;;;;;;;;;;;;;;;;;;5071644;28;941;-67
2022/04/08 09:34:56;;;;;;;;;;;;;;;;;;5069019;28;1917;-67
2022/04/08 09:37:22;;;;;;;;;;;;;;;;;;5068985;28;961;-67
2022/04/08 09:39:55;;;;;;;;;;;;;;;;;;5071470;28;1031;-67
2022/04/08 09:42:22;;;;;;;;;;;;;;;;;;5071694;28;961;-67
2022/04/08 09:44:48;;;;;;;;;;;;;;;;;;5071333;28;1461;-67
2022/04/08 09:47:15;;;;;;;;;;;;;;;;;;5071175;28;1122;-66
2022/04/08 09:49:41;;;;;;;;;;;;;;;;;;5083691;22;2474;-67
2022/04/08 09:52:08;;;;;;;;;;;;;;;;;;5015331;28;2104;-68
2022/04/08 09:54:35;;;;;;;;;;;;;;;;;;5026668;28;1955;-67
2022/04/08 09:57:01;;;;;;;;;;;;;;;;;;5028865;28;1673;-68
2022/04/08 09:59:30;;;;;;;;;;;;;;;;;;5028953;28;1564;-68
2022/04/08 10:01:56;;;;;;;;;;;;;;;;;;5028867;28;1693;-68
2022/04/08 10:04:22;;;;;;;;;;;;;;;;;;5019850;28;1225;-67
2022/04/08 10:06:49;;;;;;;;;;;;;;;;;;5028608;28;958;-68
2022/04/08 10:09:16;;;;;;;;;;;;;;;;;;5028687;28;1673;-69
2022/04/08 10:11:44;;;;;;;;;;;;;;;;;;5023926;28;1380;-69
2022/04/08 10:14:13;;;;;;;;;;;;;;;;;;5020322;28;1922;-70
2022/04/08 10:16:40;;;;;;;;;;;;;;;;;;5028078;28;1539;-68
2022/04/08 10:19:07;;;;;;;;;;;;;;;;;;5027503;28;1381;-69
2022/04/08 10:21:37;;;;;;;;;;;;;;;;;;5028767;28;1638;-69
2022/04/08 10:24:08;;;;;;;;;;;;;;;;;;5028419;28;958;-69
2022/04/08 10:26:34;;;;;;;;;;;;;;;;;;5025960;28;1323;-69
2022/04/08 10:29:09;;;;;;;;;;;;;;;;;;5028431;28;1068;-69
2022/04/08 10:31:35;;;;;;;;;;;;;;;;;;5028481;28;1564;-70
2022/04/08 10:34:03;;;;;;;;;;;;;;;;;;5010502;28;1950;-70
2022/04/08 10:36:33;;;;;;;;;;;;;;;;;;5027851;28;1266;-70
2022/04/08 10:39:11;;;;;;;;;;;;;;;;;;5027131;28;1443;-70
2022/04/08 10:41:44;;;;;;;;;;;;;;;;;;5043356;28;1392;-68
2022/04/08 10:44:10;;;;;;;;;;;;;;;;;;5028108;28;942;-70
2022/04/08 10:46:36;;;;;;;;;;;;;;;;;;5028371;28;954;-69
2022/04/08 10:49:03;;;;;;;;;;;;;;;;;;5028501;28;1543;-69
2022/04/08 10:51:30;;;;;;;;;;;;;;;;;;5027328;28;2152;-69
2022/04/08 10:54:02;;;;;;;;;;;;;;;;;;5027988;28;1975;-70
2022/04/08 10:56:34;;;;;;;;;;;;;;;;;;5027621;28;1388;-70
2022/04/08 10:59:00;;;;;;;;;;;;;;;;;;5028192;28;1424;-67
2022/04/08 11:01:27;;;;;;;;;;;;;;;;;;5028192;28;1462;-69
2022/04/08 11:03:54;;;;;;;;;;;;;;;;;;5027888;28;968;-69
2022/04/08 11:06:24;;;;;;;;;;;;;;;;;;5027156;28;988;-68
2022/04/08 11:08:50;;;;;;;;;;;;;;;;;;5024961;28;1286;-69
2022/04/08 11:11:17;;;;;;;;;;;;;;;;;;5009873;28;1614;-68
2022/04/08 11:13:43;;;;;;;;;;;;;;;;;;5026821;28;1966;-69
2022/04/08 11:16:09;;;;;;;;;;;;;;;;;;5027503;28;1603;-67
2022/04/08 11:18:35;;;;;;;;;;;;;;;;;;5028085;28;905;-69
2022/04/08 11:21:02;;;;;;;;;;;;;;;;;;5027406;28;1444;-68
2022/04/08 11:23:30;;;;;;;;;;;;;;;;;;5027709;28;961;-69
2022/04/08 11:25:56;;;;;;;;;;;;;;;;;;5032390;28;1522;-69
2022/04/08 11:28:23;;;;;;;;;;;;;;;;;;5033135;28;1595;-69
2022/04/08 11:30:54;;;;;;;;;;;;;;;;;;5033375;28;1321;-70
2022/04/08 11:33:21;;;;;;;;;;;;;;;;;;5034381;28;1423;-69
2022/04/08 11:35:47;;;;;;;;;;;;;;;;;;5029828;28;2005;-70
2022/04/08 11:38:14;;;;;;;;;;;;;;;;;;5028954;28;1953;-70
2022/04/08 11:40:41;;;;;;;;;;;;;;;;;;5032621;28;1718;-69
2022/04/08 11:43:07;;;;;;;;;;;;;;;;;;5032817;28;1571;-68
2022/04/08 11:45:34;;;;;;;;;;;;;;;;;;5033989;28;1591;-70
2022/04/08 11:48:00;;;;;;;;;;;;;;;;;;5033731;28;1611;-70
2022/04/08 11:50:27;;;;;;;;;;;;;;;;;;5033283;28;1317;-67
2022/04/08 11:52:53;;;;;;;;;;;;;;;;;;5031712;28;1340;-68
2022/04/08 11:55:22;;;;;;;;;;;;;;;;;;5033495;28;1919;-68
2022/04/08 11:57:50;;;;;;;;;;;;;;;;;;5032667;28;1563;-67
2022/04/08 12:00:16;;;;;;;;;;;;;;;;;;5033597;28;1350;-68
2022/04/08 12:02:42;;;;;;;;;;;;;;;;;;5033026;28;1710;-67
2022/04/08 12:05:09;;;;;;;;;;;;;;;;;;5033530;28;1631;-68
2022/04/08 12:07:35;;;;;;;;;;;;;;;;;;5017442;28;1352;-68
2022/04/08 12:10:01;;;;;;;;;;;;;;;;;;5032243;28;1594;-67
2022/04/08 12:12:28;;;;;;;;;;;;;;;;;;5032879;28;1562;-67
2022/04/08 12:14:56;;;;;;;;;;;;;;;;;;5032364;28;1973;-68
2022/04/08 12:17:22;;;;;;;;;;;;;;;;;;5032649;28;1808;-69
2022/04/08 12:19:51;;;;;;;;;;;;;;;;;;5032443;28;1629;-68
2022/04/08 12:22:18;;;;;;;;;;;;;;;;;;5032603;28;1404;-68
2022/04/08 12:24:44;;;;;;;;;;;;;;;;;;5030761;28;1530;-70
2022/04/08 12:27:11;;;;;;;;;;;;;;;;;;5032167;28;1780;-68
2022/04/08 12:29:39;;;;;;;;;;;;;;;;;;5032543;28;1596;-69
2022/04/08 12:32:12;;;;;;;;;;;;;;;;;;5031965;28;1477;-70
2022/04/08 12:34:38;;;;;;;;;;;;;;;;;;5025105;28;1918;-69
2022/04/08 12:37:04;;;;;;;;;;;;;;;;;;5030004;28;1282;-69
2022/04/08 12:39:31;;;;;;;;;;;;;;;;;;5025064;28;1314;-68
2022/04/08 12:41:59;;;;;;;;;;;;;;;;;;5035784;28;1183;-68
2022/04/08 12:44:25;;;;;;;;;;;;;;;;;;5032395;28;1689;-70
2022/04/08 12:46:52;;;;;;;;;;;;;;;;;;5032288;28;989;-69
2022/04/08 12:49:19;;;;;;;;;;;;;;;;;;5031801;28;1661;-70
2022/04/08 12:51:46;;;;;;;;;;;;;;;;;;5031980;28;1586;-67
2022/04/08 12:54:12;;;;;;;;;;;;;;;;;;5031770;28;1946;-70
2022/04/08 12:56:38;;;;;;;;;;;;;;;;;;5031135;28;1662;-69
2022/04/08 12:59:04;;;;;;;;;;;;;;;;;;5031821;28;1497;-70
2022/04/08 13:01:31;;;;;;;;;;;;;;;;;;5031386;28;1404;-69
2022/04/08 13:03:57;;;;;;;;;;;;;;;;;;5032139;28;1590;-70
2022/04/08 13:06:24;;;;;;;;;;;;;;;;;;5014024;28;1428;-70
2022/04/08 13:08:51;;;;;;;;;;;;;;;;;;5031799;28;911;-70
2022/04/08 13:11:17;;;;;;;;;;;;;;;;;;5039126;28;1537;-69
2022/04/08 13:13:43;;;;;;;;;;;;;;;;;;5031629;28;1738;-69
2022/04/08 13:16:11;;;;;;;;;;;;;;;;;;5031652;28;1932;-69
2022/04/08 13:18:37;;;;;;;;;;;;;;;;;;5031868;28;1702;-69
2022/04/08 13:21:04;;;;;;;;;;;;;;;;;;5026362;28;1429;-69
2022/04/08 13:23:31;;;;;;;;;;;;;;;;;;5028987;28;1388;-70
2022/04/08 13:25:57;;;;;;;;;;;;;;;;;;5031570;28;1579;-69
2022/04/08 13:28:24;;;;;;;;;;;;;;;;;;5039975;28;1634;-68
2022/04/08 13:30:50;;;;;;;;;;;;;;;;;;5031769;28;1658;-69
2022/04/08 13:33:17;;;;;;;;;;;;;;;;;;5032053;28;778;-69
2022/04/08 13:35:43;;;;;;;;;;;;;;;;;;5031664;28;1907;-69
2022/04/08 13:38:09;;;;;;;;;;;;;;;;;;5031282;28;1583;-69
2022/04/08 13:40:37;;;;;;;;;;;;;;;;;;5031171;28;1458;-70
2022/04/08 13:43:04;;;;;;;;;;;;;;;;;;5030907;28;1681;-69
2022/04/08 13:45:30;;;;;;;;;;;;;;;;;;5015748;28;1045;-69
2022/04/08 13:47:57;;;;;;;;;;;;;;;;;;5030803;28;1555;-69
2022/04/08 13:50:23;;;;;;;;;;;;;;;;;;5030316;28;1547;-69
2022/04/08 13:52:49;;;;;;;;;;;;;;;;;;5031197;28;1618;-70
2022/04/08 13:55:15;;;;;;;;;;;;;;;;;;5030746;28;1979;-69
2022/04/08 13:57:43;;;;;;;;;;;;;;;;;;5024555;28;1525;-70
2022/04/08 14:00:09;;;;;;;;;;;;;;;;;;5026028;28;1583;-70
2022/04/08 14:02:38;;;;;;;;;;;;;;;;;;5028745;28;1535;-70
2022/04/08 14:05:04;;;;;;;;;;;;;;;;;;5028932;28;1551;-69
2022/04/08 14:07:30;;;;;;;;;;;;;;;;;;5028086;28;1595;-69
2022/04/08 14:09:58;;;;;;;;;;;;;;;;;;5029201;28;1403;-69
2022/04/08 14:12:24;;;;;;;;;;;;;;;;;;5028043;28;1427;-70
2022/04/08 14:14:51;;;;;;;;;;;;;;;;;;5028792;28;1914;-70
2022/04/08 14:17:18;;;;;;;;;;;;;;;;;;5028080;28;1722;-68
2022/04/08 14:19:44;;;;;;;;;;;;;;;;;;5028747;28;1344;-68
2022/04/08 14:22:10;;;;;;;;;;;;;;;;;;5026398;28;1526;-70
2022/04/08 14:24:37;;;;;;;;;;;;;;;;;;5024733;28;1478;-69
2022/04/08 14:27:03;;;;;;;;;;;;;;;;;;5027890;28;1867;-69
2022/04/08 14:29:29;;;;;;;;;;;;;;;;;;5028088;28;1412;-69
2022/04/08 14:31:57;;;;;;;;;;;;;;;;;;5037693;28;1626;-69
2022/04/08 14:34:23;;;;;;;;;;;;;;;;;;5028617;28;1052;-69
2022/04/08 14:36:49;;;;;;;;;;;;;;;;;;5024488;28;1914;-69
2022/04/08 14:39:15;;;;;;;;;;;;;;;;;;5027863;28;1254;-69
2022/04/08 14:41:42;;;;;;;;;;;;;;;;;;5027706;28;1646;-69
2022/04/08 14:44:10;;;;;;;;;;;;;;;;;;5027880;28;1281;-68
2022/04/08 14:46:36;;;;;;;;;;;;;;;;;;5029792;28;1531;-70
2022/04/08 14:49:04;;;;;;;;;;;;;;;;;;5028575;28;1402;-69
2022/04/08 14:51:30;;;;;;;;;;;;;;;;;;5027428;28;1528;-69
2022/04/08 14:53:56;;;;;;;;;;;;;;;;;;5036991;28;1350;-67
2022/04/08 14:56:23;;;;;;;;;;;;;;;;;;5027763;28;1910;-68
2022/04/08 14:58:49;;;;;;;;;;;;;;;;;;5026230;28;1055;-69
2022/04/08 15:01:16;;;;;;;;;;;;;;;;;;5026456;28;1656;-69
2022/04/08 15:03:43;;;;;;;;;;;;;;;;;;5028057;28;1571;-69
2022/04/08 15:06:11;;;;;;;;;;;;;;;;;;5027893;28;1413;-68
2022/04/08 15:08:37;;;;;;;;;;;;;;;;;;5027997;28;1656;-70
2022/04/08 15:11:03;;;;;;;;;;;;;;;;;;5028068;28;1324;-70
2022/04/08 15:13:29;;;;;;;;;;;;;;;;;;5027672;28;1257;-67
2022/04/08 15:15:56;;;;;;;;;;;;;;;;;;5027334;28;1914;-69
2022/04/08 15:18:24;;;;;;;;;;;;;;;;;;5027606;28;973;-68
2022/04/08 15:20:51;;;;;;;;;;;;;;;;;;5027282;28;1617;-69
2022/04/08 15:23:18;;;;;;;;;;;;;;;;;;5018717;28;1544;-69
2022/04/08 15:25:44;;;;;;;;;;;;;;;;;;5028093;28;956;-69
2022/04/08 15:28:11;;;;;;;;;;;;;;;;;;5027647;28;1372;-69
2022/04/08 15:30:37;;;;;;;;;;;;;;;;;;5028501;28;1328;-68
2022/04/08 15:33:03;;;;;;;;;;;;;;;;;;5029489;28;1617;-68
2022/04/08 15:35:34;;;;;;;;;;;;;;;;;;5027021;28;1982;-69
2022/04/08 15:38:01;;;;;;;;;;;;;;;;;;5028913;28;1424;-69
2022/04/08 15:40:30;;;;;;;;;;;;;;;;;;5029920;28;1594;-69
2022/04/08 15:42:56;;;;;;;;;;;;;;;;;;5029591;28;1655;-67
2022/04/08 15:45:23;;;;;;;;;;;;;;;;;;5029736;28;1587;-69
2022/04/08 15:47:49;;;;;;;;;;;;;;;;;;5029191;28;1606;-69
2022/04/08 15:50:15;;;;;;;;;;;;;;;;;;5029444;28;1415;-69
2022/04/08 15:52:42;;;;;;;;;;;;;;;;;;5050984;23;3653;-68
2022/04/08 15:55:09;;;;;;;;;;;;;;;;;;5048459;28;1922;-68
2022/04/08 15:57:36;;;;;;;;;;;;;;;;;;5047666;28;1352;-69
2022/04/08 16:00:03;;;;;;;;;;;;;;;;;;5034915;28;915;-69
2022/04/08 16:02:32;;;;;;;;;;;;;;;;;;5046654;28;1461;-68
2022/04/08 16:04:59;;;;;;;;;;;;;;;;;;5068109;28;1310;-69
2022/04/08 16:07:25;;;;;;;;;;;;;;;;;;5068137;28;1130;-69
2022/04/08 16:09:51;;;;;;;;;;;;;;;;;;5068214;28;715;-69
2022/04/08 16:12:17;;;;;;;;;;;;;;;;;;5070625;28;1329;-69
2022/04/08 16:14:45;;;;;;;;;;;;;;;;;;5071594;28;966;-68
2022/04/08 16:17:11;;;;;;;;;;;;;;;;;;5075224;28;1931;-68
2022/04/08 16:19:37;;;;;;;;;;;;;;;;;;5070101;28;1487;-68
2022/04/08 16:22:04;;;;;;;;;;;;;;;;;;5034463;28;1425;-69
2022/04/08 16:24:30;;;;;;;;;;;;;;;;;;5033587;28;1290;-68
2022/04/08 16:26:56;;;;;;;;;;;;;;;;;;5033149;28;1088;-69
2022/04/08 16:29:22;;;;;;;;;;;;;;;;;;5033601;28;1016;-68
2022/04/08 16:31:53;;;;;;;;;;;;;;;;;;5033096;28;1088;-69
2022/04/08 16:34:19;;;;;;;;;;;;;;;;;;5015127;28;1392;-69
2022/04/08 16:36:45;;;;;;;;;;;;;;;;;;5032832;28;1910;-69
2022/04/08 16:39:11;;;;;;;;;;;;;;;;;;5033184;28;1116;-68
2022/04/08 16:41:38;;;;;;;;;;;;;;;;;;5032324;28;906;-68
2022/04/08 16:44:04;;;;;;;;;;;;;;;;;;5033015;28;1293;-68
2022/04/08 16:46:30;;;;;;;;;;;;;;;;;;5032746;28;1112;-68
2022/04/08 16:48:58;;;;;;;;;;;;;;;;;;5033135;28;1048;-68
2022/04/08 16:51:24;;;;;;;;;;;;;;;;;;5032527;28;838;-68
2022/04/08 16:53:51;;;;;;;;;;;;;;;;;;5014669;28;1323;-68
2022/04/08 16:56:17;;;;;;;;;;;;;;;;;;5032551;28;1914;-67
2022/04/08 16:58:43;;;;;;;;;;;;;;;;;;5033023;28;1072;-68
2022/04/08 17:01:09;;;;;;;;;;;;;;;;;;5032575;28;972;-67